createdAt,value
2023-02-11T00:01:14.120Z,102781.91
2023-02-11T00:03:41.983Z,102782.87
2023-02-11T00:06:11.195Z,102775.47
2023-02-11T00:08:39.392Z,102780.94
2023-02-11T00:11:07.875Z,102788.63
2023-02-11T00:13:35.420Z,102780.94
2023-02-11T00:16:13.711Z,102781.50
2023-02-11T00:18:41.599Z,102774.59
2023-02-11T00:21:11.944Z,102786.72
2023-02-11T00:23:39.523Z,102785.59
2023-02-11T00:26:15.879Z,102788.47
2023-02-11T00:28:44.077Z,102789.19
2023-02-11T00:31:13.226Z,102789.81
2023-02-11T00:33:41.070Z,102788.53
2023-02-11T00:36:14.345Z,102775.59
2023-02-11T00:38:46.544Z,102787.66
2023-02-11T00:41:15.070Z,102782.94
2023-02-11T00:43:43.064Z,102788.00
2023-02-11T00:46:10.853Z,102780.31
2023-02-11T00:48:38.601Z,102775.41
2023-02-11T00:51:06.879Z,102778.78
2023-02-11T00:53:34.794Z,102765.22
2023-02-11T00:56:02.449Z,102774.78
2023-02-11T00:58:30.378Z,102764.50
2023-02-11T01:00:58.341Z,102741.09
2023-02-11T01:03:26.056Z,102750.22
2023-02-11T01:05:54.237Z,102749.34
2023-02-11T01:08:21.778Z,102747.34
2023-02-11T01:11:03.296Z,102748.94
2023-02-11T01:13:32.263Z,102744.47
2023-02-11T01:16:00.213Z,102750.41
2023-02-11T01:18:27.807Z,102744.38
2023-02-11T01:20:55.585Z,102734.38
2023-02-11T01:23:24.036Z,102736.88
2023-02-11T01:25:52.652Z,102732.91
2023-02-11T01:28:26.352Z,102733.25
2023-02-11T01:30:54.608Z,102744.03
2023-02-11T01:33:23.040Z,102729.72
2023-02-11T01:35:50.876Z,102730.03
2023-02-11T01:38:26.202Z,102718.91
2023-02-11T01:40:57.228Z,102727.12
2023-02-11T01:43:26.170Z,102721.06
2023-02-11T01:46:12.455Z,102724.34
2023-02-11T01:48:42.940Z,102713.22
2023-02-11T01:51:17.454Z,102716.34
2023-02-11T01:54:05.157Z,102719.28
2023-02-11T01:56:53.113Z,102716.97
2023-02-11T01:59:25.960Z,102714.72
2023-02-11T02:01:57.789Z,102701.25
2023-02-11T02:04:31.541Z,102703.75
2023-02-11T02:07:10.025Z,102694.84
2023-02-11T02:09:46.634Z,102685.94
2023-02-11T02:12:14.237Z,102691.41
2023-02-11T02:14:43.204Z,102680.03
2023-02-11T02:17:22.235Z,102688.75
2023-02-11T02:20:04.302Z,102678.09
2023-02-11T02:22:53.674Z,102686.84
2023-02-11T02:25:27.267Z,102685.94
2023-02-11T02:28:07.362Z,102681.84
2023-02-11T02:30:53.422Z,102677.69
2023-02-11T02:33:58.942Z,102669.19
2023-02-11T02:36:38.336Z,102670.72
2023-02-11T02:39:18.551Z,102672.25
2023-02-11T02:41:46.448Z,102672.34
2023-02-11T02:44:14.255Z,102670.97
2023-02-11T02:46:41.891Z,102671.19
2023-02-11T02:49:14.266Z,102675.38
2023-02-11T02:51:54.291Z,102676.31
2023-02-11T02:54:43.810Z,102668.56
2023-02-11T02:57:30.528Z,102665.94
2023-02-11T02:59:58.100Z,102655.28
2023-02-11T03:02:36.229Z,102658.31
2023-02-11T03:05:28.566Z,102658.78
2023-02-11T03:08:10.206Z,102646.31
2023-02-11T03:10:42.014Z,102669.53
2023-02-11T03:13:10.213Z,102663.59
2023-02-11T03:15:46.239Z,102660.16
2023-02-11T03:18:16.401Z,102650.56
2023-02-11T03:20:45.944Z,102649.75
2023-02-11T03:23:30.119Z,102649.34
2023-02-11T03:26:09.328Z,102654.28
2023-02-11T03:29:09.247Z,102652.53
2023-02-11T03:31:49.193Z,102655.09
2023-02-11T03:34:27.418Z,102649.97
2023-02-11T03:36:58.421Z,102655.75
2023-02-11T03:39:31.731Z,102650.53
2023-02-11T03:41:59.922Z,102647.81
2023-02-11T03:44:33.148Z,102646.94
2023-02-11T03:47:01.292Z,102642.44
2023-02-11T03:49:30.152Z,102647.72
2023-02-11T03:51:58.238Z,102635.00
2023-02-11T03:54:29.768Z,102635.81
2023-02-11T03:56:59.748Z,102636.34
2023-02-11T03:59:27.394Z,102635.62
2023-02-11T04:01:55.070Z,102639.31
2023-02-11T04:04:22.921Z,102643.72
2023-02-11T04:06:50.419Z,102642.28
2023-02-11T04:09:18.019Z,102631.97
2023-02-11T04:11:46.088Z,102642.47
2023-02-11T04:14:13.576Z,102634.53
2023-02-11T04:16:41.111Z,102633.72
2023-02-11T04:19:09.009Z,102629.53
2023-02-11T04:21:36.504Z,102631.62
2023-02-11T04:24:04.196Z,102632.25
2023-02-11T04:26:32.048Z,102624.31
2023-02-11T04:28:59.777Z,102618.09
2023-02-11T04:31:28.476Z,102613.59
2023-02-11T04:33:57.031Z,102612.22
2023-02-11T04:36:24.516Z,102620.50
2023-02-11T04:38:51.993Z,102617.47
2023-02-11T04:41:19.830Z,102608.31
2023-02-11T04:43:47.440Z,102607.62
2023-02-11T04:46:15.136Z,102608.56
2023-02-11T04:48:43.054Z,102603.69
2023-02-11T04:51:10.471Z,102602.09
2023-02-11T04:53:38.050Z,102586.63
2023-02-11T04:56:05.966Z,102592.31
2023-02-11T04:58:33.555Z,102591.66
2023-02-11T05:01:11.298Z,102577.50
2023-02-11T05:03:39.241Z,102590.31
2023-02-11T05:06:07.265Z,102587.59
2023-02-11T05:08:34.826Z,102583.34
2023-02-11T05:11:02.700Z,102584.91
2023-02-11T05:13:30.473Z,102577.09
2023-02-11T05:15:58.037Z,102575.94
2023-02-11T05:18:26.132Z,102586.37
2023-02-11T05:20:54.575Z,102581.06
2023-02-11T05:23:22.060Z,102579.88
2023-02-11T05:25:50.210Z,102587.81
2023-02-11T05:28:18.368Z,102586.69
2023-02-11T05:30:45.907Z,102582.06
2023-02-11T05:33:14.144Z,102571.72
2023-02-11T05:35:41.666Z,102580.38
2023-02-11T05:38:09.239Z,102589.25
2023-02-11T05:40:37.149Z,102587.56
2023-02-11T05:43:04.595Z,102573.78
2023-02-11T05:45:32.375Z,102579.00
2023-02-11T05:48:00.582Z,102574.34
2023-02-11T05:50:28.113Z,102582.34
2023-02-11T05:52:55.625Z,102581.91
2023-02-11T05:55:23.499Z,102580.34
2023-02-11T05:57:51.070Z,102580.34
2023-02-11T06:00:19.068Z,102579.78
2023-02-11T06:02:46.897Z,102589.78
2023-02-11T06:05:14.523Z,102580.53
2023-02-11T06:07:42.202Z,102587.16
2023-02-11T06:10:11.425Z,102582.28
2023-02-11T06:12:39.349Z,102574.25
2023-02-11T06:15:07.587Z,102587.47
2023-02-11T06:17:36.694Z,102579.66
2023-02-11T06:20:06.369Z,102583.50
2023-02-11T06:22:35.050Z,102578.69
2023-02-11T06:25:03.238Z,102583.00
2023-02-11T06:27:30.959Z,102581.63
2023-02-11T06:29:58.937Z,102587.88
2023-02-11T06:32:45.462Z,102589.56
2023-02-11T06:35:14.820Z,102574.03
2023-02-11T06:37:42.982Z,102584.91
2023-02-11T06:40:11.413Z,102596.44
2023-02-11T06:42:39.414Z,102592.53
2023-02-11T06:45:13.211Z,102597.19
2023-02-11T06:47:41.049Z,102589.75
2023-02-11T06:50:11.758Z,102595.34
2023-02-11T06:52:39.403Z,102596.56
2023-02-11T06:55:07.038Z,102608.09
2023-02-11T06:57:35.002Z,102605.97
2023-02-11T07:00:02.781Z,102604.47
2023-02-11T07:02:31.845Z,102602.69
2023-02-11T07:04:59.658Z,102599.63
2023-02-11T07:07:27.583Z,102600.78
2023-02-11T07:09:55.156Z,102598.66
2023-02-11T07:12:23.161Z,102599.81
2023-02-11T07:14:50.841Z,102595.06
2023-02-11T07:17:18.420Z,102593.84
2023-02-11T07:19:46.267Z,102577.69
2023-02-11T07:22:14.308Z,102592.25
2023-02-11T07:24:41.915Z,102594.53
2023-02-11T07:27:09.751Z,102601.00
2023-02-11T07:29:37.718Z,102592.87
2023-02-11T07:32:06.291Z,102595.97
2023-02-11T07:34:34.609Z,102591.22
2023-02-11T07:37:02.195Z,102588.28
2023-02-11T07:39:29.815Z,102590.28
2023-02-11T07:41:58.460Z,102597.00
2023-02-11T07:44:26.755Z,102592.37
2023-02-11T07:46:54.441Z,102576.63
2023-02-11T07:49:22.371Z,102581.41
2023-02-11T07:51:51.351Z,102577.59
2023-02-11T07:54:19.540Z,102570.56
2023-02-11T07:57:19.662Z,102561.81
2023-02-11T07:59:47.999Z,102561.81
2023-02-11T08:02:15.571Z,102563.75
2023-02-11T08:04:46.137Z,102552.66
2023-02-11T08:07:19.870Z,102554.31
2023-02-11T08:09:50.288Z,102552.47
2023-02-11T08:12:17.881Z,102557.50
2023-02-11T08:14:45.461Z,102559.03
2023-02-11T08:17:13.333Z,102546.91
2023-02-11T08:19:41.202Z,102548.31
2023-02-11T08:22:08.829Z,102552.69
2023-02-11T08:24:36.693Z,102560.84
2023-02-11T08:27:04.384Z,102563.66
2023-02-11T08:29:31.950Z,102558.03
2023-02-11T08:31:59.737Z,102549.34
2023-02-11T08:34:27.336Z,102552.69
2023-02-11T08:36:54.968Z,102541.31
2023-02-11T08:39:23.188Z,102543.09
2023-02-11T08:41:53.190Z,102538.72
2023-02-11T08:44:21.551Z,102532.41
2023-02-11T08:46:50.216Z,102529.31
2023-02-11T08:49:17.914Z,102533.69
2023-02-11T08:51:46.231Z,102524.91
2023-02-11T08:54:15.077Z,102526.75
2023-02-11T08:56:42.689Z,102526.59
2023-02-11T08:59:14.252Z,102524.34
2023-02-11T09:01:42.192Z,102525.97
2023-02-11T09:04:10.640Z,102529.84
2023-02-11T09:06:38.247Z,102523.09
2023-02-11T09:09:06.088Z,102527.53
2023-02-11T09:11:35.535Z,102528.00
2023-02-11T09:14:04.270Z,102522.81
2023-02-11T09:16:35.892Z,102529.38
2023-02-11T09:19:05.394Z,102519.09
2023-02-11T09:21:33.549Z,102524.00
2023-02-11T09:24:01.159Z,102513.56
2023-02-11T09:26:31.222Z,102513.00
2023-02-11T09:29:00.275Z,102514.09
2023-02-11T09:31:29.894Z,102513.75
2023-02-11T09:33:59.828Z,102516.50
2023-02-11T09:36:30.183Z,102518.59
2023-02-11T09:38:59.499Z,102515.19
2023-02-11T09:41:39.688Z,102512.91
2023-02-11T09:44:09.870Z,102506.53
2023-02-11T09:46:42.242Z,102499.06
2023-02-11T09:49:19.720Z,102505.13
2023-02-11T09:52:08.454Z,102489.53
2023-02-11T09:54:54.601Z,102495.78
2023-02-11T09:57:28.559Z,102497.56
2023-02-11T09:59:57.832Z,102492.38
2023-02-11T10:02:38.074Z,102489.78
2023-02-11T10:05:25.867Z,102488.09
2023-02-11T10:08:16.755Z,102486.53
2023-02-11T10:10:52.828Z,102481.19
2023-02-11T10:13:54.655Z,102482.09
2023-02-11T10:16:32.426Z,102473.41
2023-02-11T10:19:14.145Z,102478.72
2023-02-11T10:21:54.999Z,102464.91
2023-02-11T10:24:22.592Z,102456.28
2023-02-11T10:26:52.041Z,102454.50
2023-02-11T10:29:39.023Z,102459.75
2023-02-11T10:32:15.498Z,102440.66
2023-02-11T10:34:43.075Z,102436.50
2023-02-11T10:37:13.933Z,102437.31
2023-02-11T10:39:41.594Z,102441.75
2023-02-11T10:42:11.705Z,102434.88
2023-02-11T10:44:58.942Z,102419.28
2023-02-11T10:47:32.830Z,102416.72
2023-02-11T10:50:03.753Z,102405.47
2023-02-11T10:52:31.725Z,102399.37
2023-02-11T10:55:00.574Z,102400.25
2023-02-11T10:57:39.887Z,102402.13
2023-02-11T11:00:36.254Z,102403.00
2023-02-11T11:03:07.799Z,102398.56
2023-02-11T11:05:47.635Z,102392.31
2023-02-11T11:08:15.887Z,102386.28
2023-02-11T11:10:47.003Z,102390.59
2023-02-11T11:13:24.194Z,102377.53
2023-02-11T11:16:08.534Z,102379.19
2023-02-11T11:18:36.427Z,102381.88
2023-02-11T11:21:14.368Z,102374.00
2023-02-11T11:24:06.291Z,102368.81
2023-02-11T11:26:45.711Z,102364.47
2023-02-11T11:29:23.128Z,102364.59
2023-02-11T11:32:18.285Z,102368.25
2023-02-11T11:34:52.160Z,102368.44
2023-02-11T11:37:29.214Z,102366.69
2023-02-11T11:40:00.525Z,102364.97
2023-02-11T11:42:31.263Z,102345.94
2023-02-11T11:45:05.008Z,102342.53
2023-02-11T11:47:45.507Z,102348.66
2023-02-11T11:50:28.207Z,102359.97
2023-02-11T11:53:07.774Z,102349.56
2023-02-11T11:55:42.439Z,102339.97
2023-02-11T11:58:18.445Z,102341.63
2023-02-11T12:01:04.863Z,102320.75
2023-02-11T12:03:32.605Z,102335.56
2023-02-11T12:06:09.326Z,102335.50
2023-02-11T12:09:01.820Z,102325.09
2023-02-11T12:11:39.319Z,102315.50
2023-02-11T12:14:44.221Z,102325.91
2023-02-11T12:17:11.655Z,102313.72
2023-02-11T12:20:05.567Z,102320.72
2023-02-11T12:23:02.548Z,102312.03
2023-02-11T12:25:39.101Z,102306.75
2023-02-11T12:28:15.485Z,102301.53
2023-02-11T12:31:07.406Z,102298.94
2023-02-11T12:34:12.453Z,102290.28
2023-02-11T12:36:45.871Z,102283.34
2023-02-11T12:39:45.529Z,102293.72
2023-02-11T12:42:51.166Z,102283.28
2023-02-11T12:45:43.919Z,102283.31
2023-02-11T12:48:37.310Z,102275.47
2023-02-11T12:51:39.653Z,102270.31
2023-02-11T12:54:10.995Z,102261.59
2023-02-11T12:56:59.226Z,102261.63
2023-02-11T12:59:33.509Z,102254.63
2023-02-11T13:02:04.561Z,102247.69
2023-02-11T13:04:39.408Z,102253.75
2023-02-11T13:07:14.873Z,102252.00
2023-02-11T13:09:46.729Z,102256.34
2023-02-11T13:12:33.533Z,102248.50
2023-02-11T13:15:07.153Z,102252.00
2023-02-11T13:17:47.164Z,102236.38
2023-02-11T13:20:20.764Z,102238.12
2023-02-11T13:23:14.223Z,102229.38
2023-02-11T13:25:53.438Z,102228.53
2023-02-11T13:28:50.268Z,102221.56
2023-02-11T13:31:20.443Z,102221.56
2023-02-11T13:33:49.925Z,102213.75
2023-02-11T13:36:23.720Z,102213.72
2023-02-11T13:38:57.869Z,102212.84
2023-02-11T13:41:30.364Z,102210.22
2023-02-11T13:44:25.499Z,102209.37
2023-02-11T13:47:02.405Z,102209.34
2023-02-11T13:49:32.702Z,102202.41
2023-02-11T13:52:02.072Z,102193.69
2023-02-11T13:54:38.558Z,102190.22
2023-02-11T13:57:23.696Z,102191.94
2023-02-11T13:59:54.119Z,102176.25
2023-02-11T14:02:40.336Z,102174.53
2023-02-11T14:05:27.123Z,102164.09
2023-02-11T14:08:28.609Z,102171.94
2023-02-11T14:10:59.293Z,102159.75
2023-02-11T14:13:34.754Z,102160.62
2023-02-11T14:16:05.764Z,102151.03
2023-02-11T14:18:49.623Z,102155.41
2023-02-11T14:21:29.652Z,102160.62
2023-02-11T14:24:04.938Z,102164.09
2023-02-11T14:26:52.324Z,102162.34
2023-02-11T14:29:41.609Z,102151.06
2023-02-11T14:32:21.757Z,102144.97
2023-02-11T14:35:08.401Z,102152.78
2023-02-11T14:37:36.185Z,102155.41
2023-02-11T14:40:11.297Z,102156.25
2023-02-11T14:42:39.806Z,102162.34
2023-02-11T14:45:14.546Z,102147.56
2023-02-11T14:48:08.475Z,102148.41
2023-02-11T14:50:50.005Z,102157.12
2023-02-11T14:53:28.520Z,102162.34
2023-02-11T14:55:56.318Z,102158.87
2023-02-11T14:58:26.138Z,102143.19
2023-02-11T15:00:57.339Z,102143.19
2023-02-11T15:03:35.972Z,102144.94
2023-02-11T15:06:19.114Z,102157.06
2023-02-11T15:08:58.409Z,102152.72
2023-02-11T15:11:27.508Z,102147.47
2023-02-11T15:13:56.482Z,102147.47
2023-02-11T15:16:26.088Z,102151.78
2023-02-11T15:19:02.229Z,102155.19
2023-02-11T15:21:32.829Z,102142.16
2023-02-11T15:24:18.461Z,102143.03
2023-02-11T15:26:56.226Z,102149.94
2023-02-11T15:29:28.731Z,102162.03
2023-02-11T15:32:22.653Z,102152.41
2023-02-11T15:34:52.420Z,102157.59
2023-02-11T15:37:22.204Z,102148.84
2023-02-11T15:39:50.680Z,102145.34
2023-02-11T15:42:40.771Z,102144.44
2023-02-11T15:45:28.713Z,102140.03
2023-02-11T15:48:00.279Z,102138.25
2023-02-11T15:50:30.679Z,102124.28
2023-02-11T15:53:01.268Z,102118.16
2023-02-11T15:55:29.335Z,102123.25
2023-02-11T15:58:00.692Z,102117.97
2023-02-11T16:00:36.264Z,102122.25
2023-02-11T16:03:04.811Z,102131.72
2023-02-11T16:05:37.404Z,102130.81
2023-02-11T16:08:21.272Z,102129.00
2023-02-11T16:11:03.389Z,102131.53
2023-02-11T16:13:33.697Z,102129.75
2023-02-11T16:16:04.700Z,102135.75
2023-02-11T16:18:39.230Z,102127.06
2023-02-11T16:21:18.154Z,102126.16
2023-02-11T16:23:51.829Z,102127.00
2023-02-11T16:26:39.267Z,102118.28
2023-02-11T16:29:13.728Z,102129.56
2023-02-11T16:31:43.798Z,102129.53
2023-02-11T16:34:17.153Z,102108.69
2023-02-11T16:36:46.067Z,102096.50
2023-02-11T16:39:14.993Z,102108.66
2023-02-11T16:41:43.298Z,102105.16
2023-02-11T16:44:11.120Z,102109.38
2023-02-11T16:46:39.381Z,102109.28
2023-02-11T16:49:11.246Z,102106.59
2023-02-11T16:51:40.662Z,102102.22
2023-02-11T16:54:18.194Z,102109.97
2023-02-11T16:56:46.482Z,102109.91
2023-02-11T16:59:14.603Z,102107.25
2023-02-11T17:01:43.171Z,102102.00
2023-02-11T17:04:17.775Z,102092.34
2023-02-11T17:06:45.892Z,102093.19
2023-02-11T17:09:20.781Z,102087.03
2023-02-11T17:11:49.450Z,102095.63
2023-02-11T17:14:18.674Z,102082.53
2023-02-11T17:16:47.756Z,102086.88
2023-02-11T17:19:19.688Z,102084.22
2023-02-11T17:21:50.751Z,102098.00
2023-02-11T17:24:20.293Z,102082.31
2023-02-11T17:26:48.816Z,102088.38
2023-02-11T17:29:19.462Z,102083.88
2023-02-11T17:31:47.337Z,102087.37
2023-02-11T17:34:16.679Z,102078.63
2023-02-11T17:36:44.882Z,102065.53
2023-02-11T17:39:12.942Z,102071.59
2023-02-11T17:41:41.602Z,102061.09
2023-02-11T17:44:12.321Z,102059.38
2023-02-11T17:46:40.317Z,102059.38
2023-02-11T17:49:08.505Z,102055.84
2023-02-11T17:51:38.286Z,102054.06
2023-02-11T17:54:14.357Z,102062.62
2023-02-11T17:56:42.868Z,102052.25
2023-02-11T17:59:12.176Z,102055.59
2023-02-11T18:01:41.192Z,102051.28
2023-02-11T18:04:13.766Z,102053.00
2023-02-11T18:06:42.697Z,102046.00
2023-02-11T18:09:11.334Z,102057.31
2023-02-11T18:11:40.469Z,102071.25
2023-02-11T18:14:09.103Z,102071.31
2023-02-11T18:16:39.465Z,102061.03
2023-02-11T18:19:08.034Z,102055.97
2023-02-11T18:21:36.338Z,102047.37
2023-02-11T18:24:07.036Z,102062.19
2023-02-11T18:26:35.361Z,102061.41
2023-02-11T18:29:03.928Z,102057.19
2023-02-11T18:31:32.245Z,102062.47
2023-02-11T18:34:00.150Z,102060.81
2023-02-11T18:36:27.707Z,102049.53
2023-02-11T18:38:58.233Z,102060.00
2023-02-11T18:41:25.965Z,102047.91
2023-02-11T18:43:54.483Z,102054.00
2023-02-11T18:46:22.707Z,102048.78
2023-02-11T18:48:55.565Z,102058.34
2023-02-11T18:51:24.330Z,102057.53
2023-02-11T18:53:52.489Z,102049.69
2023-02-11T18:56:22.788Z,102041.09
2023-02-11T18:58:51.465Z,102038.56
2023-02-11T19:01:24.410Z,102016.06
2023-02-11T19:03:54.599Z,102032.56
2023-02-11T19:06:25.665Z,102027.47
2023-02-11T19:08:59.807Z,102036.13
2023-02-11T19:11:47.725Z,102027.47
2023-02-11T19:14:20.651Z,102029.22
2023-02-11T19:16:50.625Z,102030.94
2023-02-11T19:19:19.257Z,102033.59
2023-02-11T19:21:47.654Z,102035.34
2023-02-11T19:24:18.929Z,102038.81
2023-02-11T19:26:48.228Z,102040.53
2023-02-11T19:29:17.306Z,102036.19
2023-02-11T19:31:45.421Z,102036.16
2023-02-11T19:34:15.343Z,102041.31
2023-02-11T19:36:43.608Z,102035.19
2023-02-11T19:39:13.362Z,102043.03
2023-02-11T19:41:41.685Z,102036.13
2023-02-11T19:44:09.664Z,102043.91
2023-02-11T19:46:40.793Z,102040.44
2023-02-11T19:49:10.128Z,102030.03
2023-02-11T19:51:39.508Z,102024.78
2023-02-11T19:54:07.686Z,102031.69
2023-02-11T19:56:35.653Z,102030.78
2023-02-11T19:59:03.893Z,102034.22
2023-02-11T20:01:32.972Z,102019.50
2023-02-11T20:04:01.564Z,102019.53
2023-02-11T20:06:31.517Z,102021.22
2023-02-11T20:09:01.772Z,102016.03
2023-02-11T20:11:31.396Z,102010.84
2023-02-11T20:13:59.434Z,102002.13
2023-02-11T20:16:46.309Z,102004.78
2023-02-11T20:19:18.393Z,101994.38
2023-02-11T20:21:48.353Z,102015.16
2023-02-11T20:24:17.682Z,102020.34
2023-02-11T20:26:48.401Z,102010.84
2023-02-11T20:29:18.009Z,102001.31
2023-02-11T20:31:46.230Z,101993.50
2023-02-11T20:34:14.180Z,101986.50
2023-02-11T20:36:42.347Z,101995.22
2023-02-11T20:39:11.556Z,102000.38
2023-02-11T20:41:40.120Z,101996.03
2023-02-11T20:44:09.951Z,101989.13
2023-02-11T20:46:40.382Z,101997.72
2023-02-11T20:49:12.104Z,101996.91
2023-02-11T20:51:40.410Z,101992.53
2023-02-11T20:54:13.318Z,101977.88
2023-02-11T20:56:41.688Z,101976.16
2023-02-11T20:59:10.573Z,101983.13
2023-02-11T21:01:42.338Z,101968.44
2023-02-11T21:04:13.104Z,101959.78
2023-02-11T21:06:47.331Z,101961.47
2023-02-11T21:09:17.419Z,101964.16
2023-02-11T21:11:45.861Z,101964.19
2023-02-11T21:14:13.524Z,101970.25
2023-02-11T21:16:42.309Z,101961.59
2023-02-11T21:19:09.998Z,101960.78
2023-02-11T21:21:38.824Z,101958.19
2023-02-11T21:24:07.609Z,101967.78
2023-02-11T21:26:35.889Z,101964.34
2023-02-11T21:29:18.118Z,101965.25
2023-02-11T21:31:57.448Z,101956.59
2023-02-11T21:34:24.984Z,101955.78
2023-02-11T21:36:53.118Z,101960.09
2023-02-11T21:39:21.239Z,101956.84
2023-02-11T21:41:49.126Z,101964.72
2023-02-11T21:44:17.877Z,101963.06
2023-02-11T21:46:45.743Z,101955.31
2023-02-11T21:49:13.410Z,101949.47
2023-02-11T21:51:42.499Z,101955.50
2023-02-11T21:54:10.901Z,101938.19
2023-02-11T21:56:38.401Z,101940.81
2023-02-11T21:59:06.482Z,101946.97
2023-02-11T22:01:35.421Z,101941.72
2023-02-11T22:04:03.513Z,101944.38
2023-02-11T22:06:33.605Z,101943.50
2023-02-11T22:09:06.675Z,101934.03
2023-02-11T22:11:34.821Z,101928.75
2023-02-11T22:14:02.641Z,101942.66
2023-02-11T22:16:30.529Z,101929.75
2023-02-11T22:18:58.992Z,101931.47
2023-02-11T22:21:26.927Z,101951.41
2023-02-11T22:23:55.401Z,101936.72
2023-02-11T22:26:41.364Z,101935.88
2023-02-11T22:29:09.328Z,101942.84
2023-02-11T22:31:37.418Z,101934.16
2023-02-11T22:34:06.156Z,101931.53
2023-02-11T22:36:39.754Z,101930.69
2023-02-11T22:39:11.423Z,101935.84
2023-02-11T22:41:41.054Z,101930.62
2023-02-11T22:44:09.472Z,101942.84
2023-02-11T22:46:37.356Z,101942.09
2023-02-11T22:49:05.484Z,101933.38
2023-02-11T22:51:33.752Z,101940.31
2023-02-11T22:54:03.679Z,101932.47
2023-02-11T22:56:32.273Z,101918.56
2023-02-11T22:59:02.631Z,101925.53
2023-02-11T23:01:30.955Z,101924.63
2023-02-11T23:04:03.673Z,101927.28
2023-02-11T23:06:31.766Z,101919.44
2023-02-11T23:08:59.448Z,101925.47
2023-02-11T23:11:29.248Z,101921.13
2023-02-11T23:13:57.234Z,101918.53
2023-02-11T23:16:27.500Z,101918.53
2023-02-11T23:18:55.612Z,101911.59
2023-02-11T23:21:25.381Z,101912.44
2023-02-11T23:24:00.857Z,101911.50
2023-02-11T23:26:29.235Z,101904.59
2023-02-11T23:28:58.306Z,101899.38
2023-02-11T23:31:28.885Z,101885.50
2023-02-11T23:33:57.608Z,101889.84
2023-02-11T23:36:25.238Z,101888.09
2023-02-11T23:38:52.906Z,101888.09
2023-02-11T23:41:21.269Z,101873.34
2023-02-11T23:43:50.829Z,101882.94
2023-02-11T23:46:19.195Z,101880.38
2023-02-11T23:48:47.028Z,101882.94
2023-02-11T23:51:14.608Z,101882.94
2023-02-11T23:53:42.149Z,101872.53
2023-02-11T23:56:14.307Z,101871.66
2023-02-11T23:58:42.079Z,101875.13
